sensor_id;sensor_type;location;lat;lon;timestamp;temperature;humidity
21387;DHT22;10854;45.922;6.716;2022-10-16T00:01:48;13.40;94.80
21387;DHT22;10854;45.922;6.716;2022-10-16T00:04:18;13.50;94.50
21387;DHT22;10854;45.922;6.716;2022-10-16T00:06:46;13.50;94.30
21387;DHT22;10854;45.922;6.716;2022-10-16T00:09:16;13.50;94.30
21387;DHT22;10854;45.922;6.716;2022-10-16T00:11:45;13.50;94.50
21387;DHT22;10854;45.922;6.716;2022-10-16T00:14:14;13.40;94.80
21387;DHT22;10854;45.922;6.716;2022-10-16T00:16:43;13.30;95.20
21387;DHT22;10854;45.922;6.716;2022-10-16T00:19:12;13.20;95.60
21387;DHT22;10854;45.922;6.716;2022-10-16T00:21:41;13.10;96.10
21387;DHT22;10854;45.922;6.716;2022-10-16T00:24:10;13.00;96.30
21387;DHT22;10854;45.922;6.716;2022-10-16T00:26:40;12.90;96.10
21387;DHT22;10854;45.922;6.716;2022-10-16T00:29:09;12.80;96.20
21387;DHT22;10854;45.922;6.716;2022-10-16T00:31:38;12.80;97.00
21387;DHT22;10854;45.922;6.716;2022-10-16T00:34:07;12.70;96.90
21387;DHT22;10854;45.922;6.716;2022-10-16T00:36:36;12.70;96.60
21387;DHT22;10854;45.922;6.716;2022-10-16T00:39:04;12.70;96.40
21387;DHT22;10854;45.922;6.716;2022-10-16T00:41:34;12.70;96.20
21387;DHT22;10854;45.922;6.716;2022-10-16T00:44:40;12.70;95.90
21387;DHT22;10854;45.922;6.716;2022-10-16T00:46:52;12.80;95.90
21387;DHT22;10854;45.922;6.716;2022-10-16T00:49:21;12.80;95.50
21387;DHT22;10854;45.922;6.716;2022-10-16T00:51:51;12.90;95.40
21387;DHT22;10854;45.922;6.716;2022-10-16T00:54:29;12.90;95.00
21387;DHT22;10854;45.922;6.716;2022-10-16T00:57:01;13.00;94.50
21387;DHT22;10854;45.922;6.716;2022-10-16T00:59:37;13.10;94.30
21387;DHT22;10854;45.922;6.716;2022-10-16T01:02:10;13.10;94.50
21387;DHT22;10854;45.922;6.716;2022-10-16T01:04:50;13.00;94.60
21387;DHT22;10854;45.922;6.716;2022-10-16T01:07:30;12.90;94.70
21387;DHT22;10854;45.922;6.716;2022-10-16T01:10:32;12.80;95.00
21387;DHT22;10854;45.922;6.716;2022-10-16T01:13:09;12.80;95.30
21387;DHT22;10854;45.922;6.716;2022-10-16T01:16:05;12.70;96.50
21387;DHT22;10854;45.922;6.716;2022-10-16T01:18:43;12.70;97.10
21387;DHT22;10854;45.922;6.716;2022-10-16T01:21:27;12.50;97.20
21387;DHT22;10854;45.922;6.716;2022-10-16T01:27:10;12.40;97.30
21387;DHT22;10854;45.922;6.716;2022-10-16T01:29:56;12.40;96.50
21387;DHT22;10854;45.922;6.716;2022-10-16T01:32:42;12.40;96.40
21387;DHT22;10854;45.922;6.716;2022-10-16T01:35:25;12.50;96.00
21387;DHT22;10854;45.922;6.716;2022-10-16T01:40:43;12.70;95.40
21387;DHT22;10854;45.922;6.716;2022-10-16T01:43:19;12.70;95.30
21387;DHT22;10854;45.922;6.716;2022-10-16T01:45:48;12.70;94.90
21387;DHT22;10854;45.922;6.716;2022-10-16T01:48:19;12.70;95.20
21387;DHT22;10854;45.922;6.716;2022-10-16T01:51:03;12.60;95.30
21387;DHT22;10854;45.922;6.716;2022-10-16T01:53:33;12.60;95.30
21387;DHT22;10854;45.922;6.716;2022-10-16T01:56:05;12.50;95.20
21387;DHT22;10854;45.922;6.716;2022-10-16T01:58:41;12.60;95.10
21387;DHT22;10854;45.922;6.716;2022-10-16T02:01:11;12.60;95.00
21387;DHT22;10854;45.922;6.716;2022-10-16T02:03:45;12.60;94.70
21387;DHT22;10854;45.922;6.716;2022-10-16T02:06:15;12.60;94.90
21387;DHT22;10854;45.922;6.716;2022-10-16T02:08:43;12.60;95.80
21387;DHT22;10854;45.922;6.716;2022-10-16T02:11:12;12.40;96.20
21387;DHT22;10854;45.922;6.716;2022-10-16T02:13:55;12.30;96.20
21387;DHT22;10854;45.922;6.716;2022-10-16T02:16:45;12.40;96.10
21387;DHT22;10854;45.922;6.716;2022-10-16T02:19:15;12.30;96.40
21387;DHT22;10854;45.922;6.716;2022-10-16T02:22:00;12.30;97.00
21387;DHT22;10854;45.922;6.716;2022-10-16T02:24:44;12.20;97.50
21387;DHT22;10854;45.922;6.716;2022-10-16T02:27:43;12.10;97.80
21387;DHT22;10854;45.922;6.716;2022-10-16T02:33:02;11.90;98.30
21387;DHT22;10854;45.922;6.716;2022-10-16T02:35:33;11.80;98.60
21387;DHT22;10854;45.922;6.716;2022-10-16T02:38:03;11.80;98.40
21387;DHT22;10854;45.922;6.716;2022-10-16T02:40:33;11.90;98.20
21387;DHT22;10854;45.922;6.716;2022-10-16T02:43:04;12.00;97.80
21387;DHT22;10854;45.922;6.716;2022-10-16T02:45:33;12.10;97.30
21387;DHT22;10854;45.922;6.716;2022-10-16T02:48:02;12.20;96.70
21387;DHT22;10854;45.922;6.716;2022-10-16T02:50:32;12.30;96.20
21387;DHT22;10854;45.922;6.716;2022-10-16T02:53:01;12.40;95.50
21387;DHT22;10854;45.922;6.716;2022-10-16T02:55:29;12.60;95.10
21387;DHT22;10854;45.922;6.716;2022-10-16T02:57:58;12.70;95.00
21387;DHT22;10854;45.922;6.716;2022-10-16T03:00:27;12.60;96.10
21387;DHT22;10854;45.922;6.716;2022-10-16T03:02:56;12.40;96.50
21387;DHT22;10854;45.922;6.716;2022-10-16T03:05:25;12.10;97.10
21387;DHT22;10854;45.922;6.716;2022-10-16T03:07:55;12.00;97.60
21387;DHT22;10854;45.922;6.716;2022-10-16T03:10:23;11.80;98.50
21387;DHT22;10854;45.922;6.716;2022-10-16T03:12:52;11.70;99.90
21387;DHT22;10854;45.922;6.716;2022-10-16T03:15:20;11.60;99.90
21387;DHT22;10854;45.922;6.716;2022-10-16T03:17:48;11.60;99.90
21387;DHT22;10854;45.922;6.716;2022-10-16T03:20:18;11.50;99.90
21387;DHT22;10854;45.922;6.716;2022-10-16T03:22:46;11.40;99.90
21387;DHT22;10854;45.922;6.716;2022-10-16T03:25:15;11.30;99.90
21387;DHT22;10854;45.922;6.716;2022-10-16T03:27:43;11.30;99.90
21387;DHT22;10854;45.922;6.716;2022-10-16T03:30:12;11.30;99.90
21387;DHT22;10854;45.922;6.716;2022-10-16T03:32:40;11.40;99.90
21387;DHT22;10854;45.922;6.716;2022-10-16T03:35:09;11.50;99.90
21387;DHT22;10854;45.922;6.716;2022-10-16T03:37:38;11.50;99.90
21387;DHT22;10854;45.922;6.716;2022-10-16T03:40:07;11.60;99.90
21387;DHT22;10854;45.922;6.716;2022-10-16T03:42:35;11.60;99.90
21387;DHT22;10854;45.922;6.716;2022-10-16T03:45:05;11.60;99.90
21387;DHT22;10854;45.922;6.716;2022-10-16T03:47:34;11.70;99.90
21387;DHT22;10854;45.922;6.716;2022-10-16T03:50:03;11.60;99.90
21387;DHT22;10854;45.922;6.716;2022-10-16T03:52:32;11.60;99.90
21387;DHT22;10854;45.922;6.716;2022-10-16T03:55:01;11.50;99.90
21387;DHT22;10854;45.922;6.716;2022-10-16T03:57:29;11.40;99.90
21387;DHT22;10854;45.922;6.716;2022-10-16T04:00:00;11.50;99.90
21387;DHT22;10854;45.922;6.716;2022-10-16T04:02:30;11.50;99.90
21387;DHT22;10854;45.922;6.716;2022-10-16T04:04:58;11.50;99.90
21387;DHT22;10854;45.922;6.716;2022-10-16T04:07:27;11.50;99.90
21387;DHT22;10854;45.922;6.716;2022-10-16T04:09:56;11.50;99.90
21387;DHT22;10854;45.922;6.716;2022-10-16T04:12:29;11.40;99.90
21387;DHT22;10854;45.922;6.716;2022-10-16T04:14:58;11.40;99.90
21387;DHT22;10854;45.922;6.716;2022-10-16T04:17:26;11.40;99.90
21387;DHT22;10854;45.922;6.716;2022-10-16T04:19:55;11.50;99.90
21387;DHT22;10854;45.922;6.716;2022-10-16T04:22:23;11.70;99.90
21387;DHT22;10854;45.922;6.716;2022-10-16T04:24:57;11.90;99.30
21387;DHT22;10854;45.922;6.716;2022-10-16T04:27:25;12.10;97.70
21387;DHT22;10854;45.922;6.716;2022-10-16T04:29:54;12.20;96.80
21387;DHT22;10854;45.922;6.716;2022-10-16T04:32:22;12.30;96.30
21387;DHT22;10854;45.922;6.716;2022-10-16T04:34:51;12.30;95.80
21387;DHT22;10854;45.922;6.716;2022-10-16T04:37:23;12.30;95.60
21387;DHT22;10854;45.922;6.716;2022-10-16T04:39:53;12.30;95.40
21387;DHT22;10854;45.922;6.716;2022-10-16T04:42:22;12.30;96.00
21387;DHT22;10854;45.922;6.716;2022-10-16T04:44:50;12.20;96.40
21387;DHT22;10854;45.922;6.716;2022-10-16T04:47:18;12.10;97.40
21387;DHT22;10854;45.922;6.716;2022-10-16T04:49:47;11.90;98.70
21387;DHT22;10854;45.922;6.716;2022-10-16T04:52:16;11.70;99.10
21387;DHT22;10854;45.922;6.716;2022-10-16T04:54:46;11.50;99.50
21387;DHT22;10854;45.922;6.716;2022-10-16T04:57:14;11.20;99.90
21387;DHT22;10854;45.922;6.716;2022-10-16T04:59:43;11.00;99.90
21387;DHT22;10854;45.922;6.716;2022-10-16T05:02:11;10.80;99.90
21387;DHT22;10854;45.922;6.716;2022-10-16T05:04:41;10.70;99.90
21387;DHT22;10854;45.922;6.716;2022-10-16T05:07:09;10.70;99.90
21387;DHT22;10854;45.922;6.716;2022-10-16T05:09:38;10.70;99.90
21387;DHT22;10854;45.922;6.716;2022-10-16T05:12:06;10.90;99.90
21387;DHT22;10854;45.922;6.716;2022-10-16T05:14:35;11.10;99.90
21387;DHT22;10854;45.922;6.716;2022-10-16T05:17:03;11.20;99.90
21387;DHT22;10854;45.922;6.716;2022-10-16T05:19:32;11.40;99.90
21387;DHT22;10854;45.922;6.716;2022-10-16T05:22:01;11.50;99.50
21387;DHT22;10854;45.922;6.716;2022-10-16T05:24:29;11.60;98.60
21387;DHT22;10854;45.922;6.716;2022-10-16T05:26:58;11.60;98.70
21387;DHT22;10854;45.922;6.716;2022-10-16T05:29:26;11.60;99.10
21387;DHT22;10854;45.922;6.716;2022-10-16T05:31:54;11.50;99.10
21387;DHT22;10854;45.922;6.716;2022-10-16T05:34:23;11.40;99.00
21387;DHT22;10854;45.922;6.716;2022-10-16T05:36:52;11.40;99.10
21387;DHT22;10854;45.922;6.716;2022-10-16T05:39:20;11.30;99.10
21387;DHT22;10854;45.922;6.716;2022-10-16T05:41:50;11.20;99.30
21387;DHT22;10854;45.922;6.716;2022-10-16T05:44:18;11.20;99.90
21387;DHT22;10854;45.922;6.716;2022-10-16T05:46:47;11.10;99.90
21387;DHT22;10854;45.922;6.716;2022-10-16T05:49:16;11.10;99.90
21387;DHT22;10854;45.922;6.716;2022-10-16T05:51:44;11.00;99.90
21387;DHT22;10854;45.922;6.716;2022-10-16T05:54:13;11.00;99.90
21387;DHT22;10854;45.922;6.716;2022-10-16T05:56:41;11.00;99.90
21387;DHT22;10854;45.922;6.716;2022-10-16T05:59:10;10.90;99.90
21387;DHT22;10854;45.922;6.716;2022-10-16T06:01:39;10.90;99.90
21387;DHT22;10854;45.922;6.716;2022-10-16T06:04:08;10.90;99.90
21387;DHT22;10854;45.922;6.716;2022-10-16T06:06:42;11.00;99.90
21387;DHT22;10854;45.922;6.716;2022-10-16T06:09:11;11.00;99.90
21387;DHT22;10854;45.922;6.716;2022-10-16T06:11:40;11.10;99.90
21387;DHT22;10854;45.922;6.716;2022-10-16T06:14:09;11.10;99.90
21387;DHT22;10854;45.922;6.716;2022-10-16T06:16:39;11.30;99.90
21387;DHT22;10854;45.922;6.716;2022-10-16T06:19:08;11.50;99.90
21387;DHT22;10854;45.922;6.716;2022-10-16T06:21:37;11.70;98.90
21387;DHT22;10854;45.922;6.716;2022-10-16T06:24:06;12.00;97.50
21387;DHT22;10854;45.922;6.716;2022-10-16T06:26:35;12.20;96.40
21387;DHT22;10854;45.922;6.716;2022-10-16T06:29:03;12.30;96.40
21387;DHT22;10854;45.922;6.716;2022-10-16T06:31:32;12.30;96.50
21387;DHT22;10854;45.922;6.716;2022-10-16T06:34:01;12.20;96.40
21387;DHT22;10854;45.922;6.716;2022-10-16T06:36:31;12.30;96.40
21387;DHT22;10854;45.922;6.716;2022-10-16T06:38:59;12.30;96.50
21387;DHT22;10854;45.922;6.716;2022-10-16T06:41:28;12.30;96.70
21387;DHT22;10854;45.922;6.716;2022-10-16T06:43:56;12.20;96.90
21387;DHT22;10854;45.922;6.716;2022-10-16T06:46:25;12.20;97.10
21387;DHT22;10854;45.922;6.716;2022-10-16T06:48:54;12.20;97.20
21387;DHT22;10854;45.922;6.716;2022-10-16T06:51:24;12.10;97.30
21387;DHT22;10854;45.922;6.716;2022-10-16T06:53:54;12.10;97.20
21387;DHT22;10854;45.922;6.716;2022-10-16T06:56:30;12.10;97.20
21387;DHT22;10854;45.922;6.716;2022-10-16T06:58:59;12.10;97.40
21387;DHT22;10854;45.922;6.716;2022-10-16T07:01:28;12.00;97.70
21387;DHT22;10854;45.922;6.716;2022-10-16T07:03:57;12.00;98.00
21387;DHT22;10854;45.922;6.716;2022-10-16T07:06:26;12.00;98.70
21387;DHT22;10854;45.922;6.716;2022-10-16T07:08:56;11.90;99.00
21387;DHT22;10854;45.922;6.716;2022-10-16T07:11:24;11.90;99.10
21387;DHT22;10854;45.922;6.716;2022-10-16T07:13:52;11.90;99.30
21387;DHT22;10854;45.922;6.716;2022-10-16T07:16:28;11.90;98.90
21387;DHT22;10854;45.922;6.716;2022-10-16T07:18:59;11.90;99.20
21387;DHT22;10854;45.922;6.716;2022-10-16T07:21:31;12.00;99.10
21387;DHT22;10854;45.922;6.716;2022-10-16T07:24:07;12.00;99.00
21387;DHT22;10854;45.922;6.716;2022-10-16T07:26:41;12.00;98.80
21387;DHT22;10854;45.922;6.716;2022-10-16T07:29:14;12.10;98.90
21387;DHT22;10854;45.922;6.716;2022-10-16T07:31:43;12.10;98.90
21387;DHT22;10854;45.922;6.716;2022-10-16T07:34:14;12.10;99.30
21387;DHT22;10854;45.922;6.716;2022-10-16T07:36:43;12.10;99.90
21387;DHT22;10854;45.922;6.716;2022-10-16T07:39:12;12.10;99.90
21387;DHT22;10854;45.922;6.716;2022-10-16T07:41:42;12.10;99.90
21387;DHT22;10854;45.922;6.716;2022-10-16T07:44:12;12.00;99.90
21387;DHT22;10854;45.922;6.716;2022-10-16T07:46:43;12.00;99.90
21387;DHT22;10854;45.922;6.716;2022-10-16T07:49:12;11.90;99.90
21387;DHT22;10854;45.922;6.716;2022-10-16T07:51:40;11.80;99.90
21387;DHT22;10854;45.922;6.716;2022-10-16T07:54:10;11.80;99.90
21387;DHT22;10854;45.922;6.716;2022-10-16T07:56:39;11.80;99.90
21387;DHT22;10854;45.922;6.716;2022-10-16T07:59:09;11.90;99.90
21387;DHT22;10854;45.922;6.716;2022-10-16T08:01:39;12.00;99.90
21387;DHT22;10854;45.922;6.716;2022-10-16T08:04:10;11.90;99.90
21387;DHT22;10854;45.922;6.716;2022-10-16T08:06:40;11.90;99.90
21387;DHT22;10854;45.922;6.716;2022-10-16T08:09:09;11.90;99.90
21387;DHT22;10854;45.922;6.716;2022-10-16T08:11:37;11.80;99.90
21387;DHT22;10854;45.922;6.716;2022-10-16T08:14:06;11.80;99.90
21387;DHT22;10854;45.922;6.716;2022-10-16T08:16:34;11.80;99.90
21387;DHT22;10854;45.922;6.716;2022-10-16T08:19:03;11.80;99.90
21387;DHT22;10854;45.922;6.716;2022-10-16T08:21:32;12.20;99.90
21387;DHT22;10854;45.922;6.716;2022-10-16T08:24:00;13.50;99.90
21387;DHT22;10854;45.922;6.716;2022-10-16T08:26:29;15.10;99.90
21387;DHT22;10854;45.922;6.716;2022-10-16T08:28:58;16.80;97.80
21387;DHT22;10854;45.922;6.716;2022-10-16T08:31:26;18.40;92.70
21387;DHT22;10854;45.922;6.716;2022-10-16T08:33:55;19.90;85.00
21387;DHT22;10854;45.922;6.716;2022-10-16T08:36:25;21.00;77.30
21387;DHT22;10854;45.922;6.716;2022-10-16T08:38:53;21.90;70.10
21387;DHT22;10854;45.922;6.716;2022-10-16T08:52:29;24.20;60.20
21387;DHT22;10854;45.922;6.716;2022-10-16T08:55:00;24.90;57.80
21387;DHT22;10854;45.922;6.716;2022-10-16T08:57:29;25.30;56.50
21387;DHT22;10854;45.922;6.716;2022-10-16T09:00:05;25.60;55.00
21387;DHT22;10854;45.922;6.716;2022-10-16T09:02:53;25.80;54.50
21387;DHT22;10854;45.922;6.716;2022-10-16T09:08:45;26.60;51.90
21387;DHT22;10854;45.922;6.716;2022-10-16T09:14:35;27.60;48.60
21387;DHT22;10854;45.922;6.716;2022-10-16T09:23:19;28.90;46.70
21387;DHT22;10854;45.922;6.716;2022-10-16T09:25:50;29.10;43.40
21387;DHT22;10854;45.922;6.716;2022-10-16T09:28:44;28.90;42.70
21387;DHT22;10854;45.922;6.716;2022-10-16T09:31:19;28.80;43.80
21387;DHT22;10854;45.922;6.716;2022-10-16T09:34:01;28.70;45.00
21387;DHT22;10854;45.922;6.716;2022-10-16T09:36:40;28.60;44.00
21387;DHT22;10854;45.922;6.716;2022-10-16T09:39:11;28.60;44.70
21387;DHT22;10854;45.922;6.716;2022-10-16T09:41:44;28.80;44.60
21387;DHT22;10854;45.922;6.716;2022-10-16T09:44:28;29.10;44.20
21387;DHT22;10854;45.922;6.716;2022-10-16T09:47:05;29.40;43.90
21387;DHT22;10854;45.922;6.716;2022-10-16T09:49:34;29.40;44.70
21387;DHT22;10854;45.922;6.716;2022-10-16T09:52:15;29.20;44.30
21387;DHT22;10854;45.922;6.716;2022-10-16T09:54:59;29.10;43.20
21387;DHT22;10854;45.922;6.716;2022-10-16T09:57:29;29.20;43.40
21387;DHT22;10854;45.922;6.716;2022-10-16T09:59:59;29.50;43.60
21387;DHT22;10854;45.922;6.716;2022-10-16T10:02:37;29.90;43.20
21387;DHT22;10854;45.922;6.716;2022-10-16T10:05:21;30.20;42.80
21387;DHT22;10854;45.922;6.716;2022-10-16T10:08:00;30.10;43.60
21387;DHT22;10854;45.922;6.716;2022-10-16T10:10:39;29.90;44.60
21387;DHT22;10854;45.922;6.716;2022-10-16T10:13:22;30.00;44.70
21387;DHT22;10854;45.922;6.716;2022-10-16T10:15:53;30.00;44.70
21387;DHT22;10854;45.922;6.716;2022-10-16T10:18:22;30.20;45.00
21387;DHT22;10854;45.922;6.716;2022-10-16T10:20:59;30.40;44.50
21387;DHT22;10854;45.922;6.716;2022-10-16T10:23:29;30.60;43.30
21387;DHT22;10854;45.922;6.716;2022-10-16T10:34:49;31.30;42.20
21387;DHT22;10854;45.922;6.716;2022-10-16T10:40:34;30.90;41.90
21387;DHT22;10854;45.922;6.716;2022-10-16T10:46:01;30.40;43.10
21387;DHT22;10854;45.922;6.716;2022-10-16T11:06:11;31.00;42.60
21387;DHT22;10854;45.922;6.716;2022-10-16T11:08:42;31.50;42.30
21387;DHT22;10854;45.922;6.716;2022-10-16T11:11:20;31.30;41.60
21387;DHT22;10854;45.922;6.716;2022-10-16T11:14:09;31.00;42.20
21387;DHT22;10854;45.922;6.716;2022-10-16T11:16:52;30.90;42.30
21387;DHT22;10854;45.922;6.716;2022-10-16T11:22:34;30.80;42.50
21387;DHT22;10854;45.922;6.716;2022-10-16T11:25:30;31.50;42.10
21387;DHT22;10854;45.922;6.716;2022-10-16T11:28:16;31.90;40.80
21387;DHT22;10854;45.922;6.716;2022-10-16T11:31:10;32.00;40.90
21387;DHT22;10854;45.922;6.716;2022-10-16T11:39:21;32.70;40.20
21387;DHT22;10854;45.922;6.716;2022-10-16T11:47:48;34.30;36.30
21387;DHT22;10854;45.922;6.716;2022-10-16T11:56:17;34.10;36.40
21387;DHT22;10854;45.922;6.716;2022-10-16T11:59:12;34.20;35.60
21387;DHT22;10854;45.922;6.716;2022-10-16T12:04:43;34.40;33.80
21387;DHT22;10854;45.922;6.716;2022-10-16T12:07:19;34.50;33.80
21387;DHT22;10854;45.922;6.716;2022-10-16T12:09:50;34.80;33.80
21387;DHT22;10854;45.922;6.716;2022-10-16T12:12:50;35.20;33.80
21387;DHT22;10854;45.922;6.716;2022-10-16T12:15:29;35.40;33.10
21387;DHT22;10854;45.922;6.716;2022-10-16T12:18:22;35.50;32.90
21387;DHT22;10854;45.922;6.716;2022-10-16T12:20:58;35.70;33.70
21387;DHT22;10854;45.922;6.716;2022-10-16T12:26:44;36.20;32.80
21387;DHT22;10854;45.922;6.716;2022-10-16T12:29:38;36.50;33.10
21387;DHT22;10854;45.922;6.716;2022-10-16T12:32:29;36.70;31.90
21387;DHT22;10854;45.922;6.716;2022-10-16T12:35:21;36.70;32.10
21387;DHT22;10854;45.922;6.716;2022-10-16T12:37:51;36.60;32.00
21387;DHT22;10854;45.922;6.716;2022-10-16T12:40:27;36.50;32.00
21387;DHT22;10854;45.922;6.716;2022-10-16T12:42:57;36.40;31.60
21387;DHT22;10854;45.922;6.716;2022-10-16T12:45:29;36.20;31.70
21387;DHT22;10854;45.922;6.716;2022-10-16T12:48:02;36.10;31.70
21387;DHT22;10854;45.922;6.716;2022-10-16T12:50:34;36.20;31.70
21387;DHT22;10854;45.922;6.716;2022-10-16T12:53:17;36.10;30.50
21387;DHT22;10854;45.922;6.716;2022-10-16T12:55:55;35.70;30.60
21387;DHT22;10854;45.922;6.716;2022-10-16T12:58:36;35.20;30.80
21387;DHT22;10854;45.922;6.716;2022-10-16T13:04:39;34.10;31.90
21387;DHT22;10854;45.922;6.716;2022-10-16T13:13:03;33.60;33.00
21387;DHT22;10854;45.922;6.716;2022-10-16T13:21:37;33.30;32.90
21387;DHT22;10854;45.922;6.716;2022-10-16T13:24:25;33.30;33.10
21387;DHT22;10854;45.922;6.716;2022-10-16T13:27:20;33.30;33.10
21387;DHT22;10854;45.922;6.716;2022-10-16T13:29:58;33.40;33.10
21387;DHT22;10854;45.922;6.716;2022-10-16T13:32:29;33.60;33.40
21387;DHT22;10854;45.922;6.716;2022-10-16T13:34:57;33.80;33.50
21387;DHT22;10854;45.922;6.716;2022-10-16T13:37:28;34.00;33.30
21387;DHT22;10854;45.922;6.716;2022-10-16T13:40:26;34.20;33.00
21387;DHT22;10854;45.922;6.716;2022-10-16T13:42:54;33.90;33.30
21387;DHT22;10854;45.922;6.716;2022-10-16T13:45:25;33.70;33.40
21387;DHT22;10854;45.922;6.716;2022-10-16T13:48:05;33.50;33.40
21387;DHT22;10854;45.922;6.716;2022-10-16T13:50:34;33.20;33.80
21387;DHT22;10854;45.922;6.716;2022-10-16T13:53:07;32.70;34.60
21387;DHT22;10854;45.922;6.716;2022-10-16T13:55:36;32.60;35.20
21387;DHT22;10854;45.922;6.716;2022-10-16T13:58:12;32.70;35.30
21387;DHT22;10854;45.922;6.716;2022-10-16T14:01:39;32.80;35.20
21387;DHT22;10854;45.922;6.716;2022-10-16T14:03:43;32.90;34.50
21387;DHT22;10854;45.922;6.716;2022-10-16T14:06:18;32.60;34.70
21387;DHT22;10854;45.922;6.716;2022-10-16T14:08:59;32.50;35.10
21387;DHT22;10854;45.922;6.716;2022-10-16T14:11:30;32.60;35.20
21387;DHT22;10854;45.922;6.716;2022-10-16T14:14:00;32.70;35.30
21387;DHT22;10854;45.922;6.716;2022-10-16T14:16:32;32.90;35.60
21387;DHT22;10854;45.922;6.716;2022-10-16T14:19:05;32.90;35.50
21387;DHT22;10854;45.922;6.716;2022-10-16T14:21:40;32.90;35.60
21387;DHT22;10854;45.922;6.716;2022-10-16T14:24:21;32.60;36.10
21387;DHT22;10854;45.922;6.716;2022-10-16T14:26:52;32.50;36.30
21387;DHT22;10854;45.922;6.716;2022-10-16T14:29:25;32.50;36.30
21387;DHT22;10854;45.922;6.716;2022-10-16T14:31:57;32.30;36.70
21387;DHT22;10854;45.922;6.716;2022-10-16T14:34:31;32.00;37.30
21387;DHT22;10854;45.922;6.716;2022-10-16T14:39:35;30.80;38.80
21387;DHT22;10854;45.922;6.716;2022-10-16T14:42:04;30.20;39.60
21387;DHT22;10854;45.922;6.716;2022-10-16T14:44:33;29.80;40.30
21387;DHT22;10854;45.922;6.716;2022-10-16T14:47:09;29.70;40.40
21387;DHT22;10854;45.922;6.716;2022-10-16T14:49:42;29.70;40.60
21387;DHT22;10854;45.922;6.716;2022-10-16T14:52:12;29.50;40.90
21387;DHT22;10854;45.922;6.716;2022-10-16T14:54:40;29.50;40.70
21387;DHT22;10854;45.922;6.716;2022-10-16T14:57:23;29.60;40.40
21387;DHT22;10854;45.922;6.716;2022-10-16T14:59:52;29.80;40.60
21387;DHT22;10854;45.922;6.716;2022-10-16T15:02:28;30.00;40.70
21387;DHT22;10854;45.922;6.716;2022-10-16T15:04:58;30.20;40.70
21387;DHT22;10854;45.922;6.716;2022-10-16T15:07:30;30.10;40.30
21387;DHT22;10854;45.922;6.716;2022-10-16T15:09:58;30.00;40.50
21387;DHT22;10854;45.922;6.716;2022-10-16T15:12:28;29.90;40.70
21387;DHT22;10854;45.922;6.716;2022-10-16T15:14:57;29.70;40.70
21387;DHT22;10854;45.922;6.716;2022-10-16T15:17:25;29.60;41.10
21387;DHT22;10854;45.922;6.716;2022-10-16T15:19:55;29.60;41.70
21387;DHT22;10854;45.922;6.716;2022-10-16T15:22:23;29.70;41.80
21387;DHT22;10854;45.922;6.716;2022-10-16T15:24:52;29.80;41.50
21387;DHT22;10854;45.922;6.716;2022-10-16T15:27:21;30.00;41.40
21387;DHT22;10854;45.922;6.716;2022-10-16T15:29:50;30.00;41.40
21387;DHT22;10854;45.922;6.716;2022-10-16T15:32:18;29.90;41.90
21387;DHT22;10854;45.922;6.716;2022-10-16T15:34:47;29.50;41.80
21387;DHT22;10854;45.922;6.716;2022-10-16T15:37:15;29.10;42.30
21387;DHT22;10854;45.922;6.716;2022-10-16T15:39:43;28.60;43.30
21387;DHT22;10854;45.922;6.716;2022-10-16T15:42:13;28.00;44.20
21387;DHT22;10854;45.922;6.716;2022-10-16T15:44:42;27.30;45.70
21387;DHT22;10854;45.922;6.716;2022-10-16T15:47:10;26.70;47.60
21387;DHT22;10854;45.922;6.716;2022-10-16T15:49:39;26.10;48.30
21387;DHT22;10854;45.922;6.716;2022-10-16T15:52:08;25.70;49.20
21387;DHT22;10854;45.922;6.716;2022-10-16T15:54:37;25.20;51.20
21387;DHT22;10854;45.922;6.716;2022-10-16T15:57:06;24.80;51.70
21387;DHT22;10854;45.922;6.716;2022-10-16T15:59:34;24.50;52.70
21387;DHT22;10854;45.922;6.716;2022-10-16T16:02:04;24.20;53.30
21387;DHT22;10854;45.922;6.716;2022-10-16T16:04:32;24.00;53.50
21387;DHT22;10854;45.922;6.716;2022-10-16T16:07:17;23.80;53.90
21387;DHT22;10854;45.922;6.716;2022-10-16T16:09:46;23.60;54.60
21387;DHT22;10854;45.922;6.716;2022-10-16T16:12:15;23.30;55.70
21387;DHT22;10854;45.922;6.716;2022-10-16T16:14:44;23.10;56.40
21387;DHT22;10854;45.922;6.716;2022-10-16T16:17:14;22.80;56.70
21387;DHT22;10854;45.922;6.716;2022-10-16T16:19:43;22.60;57.40
21387;DHT22;10854;45.922;6.716;2022-10-16T16:22:13;22.30;57.80
21387;DHT22;10854;45.922;6.716;2022-10-16T16:24:42;22.10;58.50
21387;DHT22;10854;45.922;6.716;2022-10-16T16:27:10;21.80;59.10
21387;DHT22;10854;45.922;6.716;2022-10-16T16:29:39;21.60;60.10
21387;DHT22;10854;45.922;6.716;2022-10-16T16:32:08;21.30;61.60
21387;DHT22;10854;45.922;6.716;2022-10-16T16:34:36;21.10;63.10
21387;DHT22;10854;45.922;6.716;2022-10-16T16:37:05;20.80;63.90
21387;DHT22;10854;45.922;6.716;2022-10-16T16:39:33;20.60;64.70
21387;DHT22;10854;45.922;6.716;2022-10-16T16:42:02;20.40;65.90
21387;DHT22;10854;45.922;6.716;2022-10-16T16:44:32;20.10;66.60
21387;DHT22;10854;45.922;6.716;2022-10-16T16:47:00;19.90;67.80
21387;DHT22;10854;45.922;6.716;2022-10-16T16:49:29;19.70;68.90
21387;DHT22;10854;45.922;6.716;2022-10-16T16:51:57;19.40;69.90
21387;DHT22;10854;45.922;6.716;2022-10-16T16:54:26;19.20;71.20
21387;DHT22;10854;45.922;6.716;2022-10-16T16:56:55;19.00;71.80
21387;DHT22;10854;45.922;6.716;2022-10-16T16:59:24;18.90;72.10
21387;DHT22;10854;45.922;6.716;2022-10-16T17:01:53;18.80;72.90
21387;DHT22;10854;45.922;6.716;2022-10-16T17:04:23;18.60;73.90
21387;DHT22;10854;45.922;6.716;2022-10-16T17:06:53;18.50;74.60
21387;DHT22;10854;45.922;6.716;2022-10-16T17:09:22;18.30;74.80
21387;DHT22;10854;45.922;6.716;2022-10-16T17:11:51;18.10;75.10
21387;DHT22;10854;45.922;6.716;2022-10-16T17:14:19;18.00;75.70
21387;DHT22;10854;45.922;6.716;2022-10-16T17:16:48;17.90;76.50
21387;DHT22;10854;45.922;6.716;2022-10-16T17:19:18;17.80;77.00
21387;DHT22;10854;45.922;6.716;2022-10-16T17:21:50;17.60;77.50
21387;DHT22;10854;45.922;6.716;2022-10-16T17:24:19;17.40;77.90
21387;DHT22;10854;45.922;6.716;2022-10-16T17:26:49;17.30;78.70
21387;DHT22;10854;45.922;6.716;2022-10-16T17:29:19;17.20;79.20
21387;DHT22;10854;45.922;6.716;2022-10-16T17:31:48;17.10;79.80
21387;DHT22;10854;45.922;6.716;2022-10-16T17:34:18;17.00;80.40
21387;DHT22;10854;45.922;6.716;2022-10-16T17:36:47;16.90;81.10
21387;DHT22;10854;45.922;6.716;2022-10-16T17:39:16;16.80;81.40
21387;DHT22;10854;45.922;6.716;2022-10-16T17:41:46;16.70;81.80
21387;DHT22;10854;45.922;6.716;2022-10-16T17:44:16;16.60;83.50
21387;DHT22;10854;45.922;6.716;2022-10-16T17:46:51;16.50;83.90
21387;DHT22;10854;45.922;6.716;2022-10-16T17:49:21;16.40;84.30
21387;DHT22;10854;45.922;6.716;2022-10-16T17:51:55;16.30;84.90